Time;durP1;ratioP1;P1;durP2;ratioP2;P2;SDS_P1;SDS_P2;PMS_P1;PMS_P2;Temp;Humidity;BMP_temperature;BMP_pressure;BME280_temperature;BME280_humidity;BME280_pressure;Samples;Min_cycle;Max_cycle;Signal;HPM_P1;HPM_P2
2021/03/01 00:01:49;;;;;;;0.10;0.10;;;;;;;;;;5047601;28;20177;-73
2021/03/01 00:04:15;;;;;;;0.10;0.10;;;;;;;;;;5047865;28;20180;-72
2021/03/01 00:06:41;;;;;;;0.15;0.15;;;;;;;;;;5049230;28;20176;-72
2021/03/01 00:09:07;;;;;;;0.30;0.30;;;;;;;;;;5047861;28;20197;-72
2021/03/01 00:11:34;;;;;;;0.40;0.40;;;;;;;;;;5047801;28;20181;-73
2021/03/01 00:14:00;;;;;;;0.20;0.20;;;;;;;;;;5049036;28;20196;-73
2021/03/01 00:16:27;;;;;;;0.40;0.40;;;;;;;;;;5047653;28;20201;-72
2021/03/01 00:18:53;;;;;;;1.10;1.10;;;;;;;;;;5048916;28;20196;-73
2021/03/01 00:21:20;;;;;;;0.10;0.10;;;;;;;;;;5048950;28;20162;-72
2021/03/01 00:23:49;;;;;;;2.72;1.65;;;;;;;;;;5048964;28;20244;-73
2021/03/01 00:26:15;;;;;;;0.10;0.10;;;;;;;;;;5048930;28;20221;-71
2021/03/01 00:28:42;;;;;;;0.10;0.10;;;;;;;;;;5048868;28;20193;-71
2021/03/01 00:31:09;;;;;;;0.10;0.10;;;;;;;;;;5049004;28;20165;-72
2021/03/01 00:33:35;;;;;;;0.10;0.10;;;;;;;;;;5048918;28;20169;-72
2021/03/01 00:36:01;;;;;;;0.63;0.63;;;;;;;;;;5048817;28;20215;-72
2021/03/01 00:38:27;;;;;;;0.38;0.38;;;;;;;;;;5047519;28;20227;-72
2021/03/01 00:40:54;;;;;;;0.38;0.38;;;;;;;;;;5048869;28;20541;-72
2021/03/01 00:43:20;;;;;;;0.28;0.28;;;;;;;;;;5049253;28;20161;-71
2021/03/01 00:45:47;;;;;;;0.10;0.10;;;;;;;;;;5051332;28;20224;-71
2021/03/01 00:48:13;;;;;;;0.70;0.70;;;;;;;;;;5052532;28;20196;-72
2021/03/01 00:50:39;;;;;;;0.10;0.10;;;;;;;;;;5052537;28;20223;-72
2021/03/01 00:53:06;;;;;;;17.95;1.70;;;;;;;;;;5052608;28;20192;-72
2021/03/01 00:55:32;;;;;;;0.10;0.10;;;;;;;;;;5052364;28;20185;-71
2021/03/01 00:57:58;;;;;;;0.13;0.13;;;;;;;;;;5052200;28;20227;-71
2021/03/01 01:00:25;;;;;;;0.10;0.10;;;;;;;;;;5052351;28;20217;-71
2021/03/01 01:02:51;;;;;;;0.30;0.30;;;;;;;;;;5052458;28;20225;-71
2021/03/01 01:05:17;;;;;;;0.10;0.10;;;;;;;;;;5052362;28;20165;-72
2021/03/01 01:07:43;;;;;;;0.10;0.10;;;;;;;;;;5050923;28;20228;-72
2021/03/01 01:10:10;;;;;;;0.32;0.32;;;;;;;;;;5052241;28;20180;-72
2021/03/01 01:12:37;;;;;;;3.65;2.22;;;;;;;;;;5051013;28;20189;-72
2021/03/01 01:15:05;;;;;;;0.25;0.25;;;;;;;;;;5050856;28;20279;-72
2021/03/01 01:17:31;;;;;;;2.42;0.63;;;;;;;;;;5051957;28;20199;-71
2021/03/01 01:19:57;;;;;;;0.20;0.20;;;;;;;;;;5050512;28;20174;-72
2021/03/01 01:22:23;;;;;;;0.10;0.10;;;;;;;;;;5050761;28;20187;-72
2021/03/01 01:24:50;;;;;;;0.10;0.10;;;;;;;;;;5050646;28;20181;-72
2021/03/01 01:27:16;;;;;;;4.13;1.08;;;;;;;;;;5050629;28;20173;-73
2021/03/01 01:29:42;;;;;;;0.20;0.20;;;;;;;;;;5051911;28;20170;-71
2021/03/01 01:32:08;;;;;;;1.00;1.00;;;;;;;;;;5051812;28;20170;-71
2021/03/01 01:34:34;;;;;;;0.47;0.47;;;;;;;;;;5050465;28;20260;-72
2021/03/01 01:37:01;;;;;;;0.10;0.10;;;;;;;;;;5051754;28;20161;-71
2021/03/01 01:39:27;;;;;;;0.10;0.10;;;;;;;;;;5050306;28;20689;-72
2021/03/01 01:41:53;;;;;;;0.40;0.40;;;;;;;;;;5051647;28;20225;-71
2021/03/01 01:44:19;;;;;;;0.10;0.10;;;;;;;;;;5051548;28;20185;-72
2021/03/01 01:46:45;;;;;;;0.13;0.13;;;;;;;;;;5051379;28;20224;-73
2021/03/01 01:49:11;;;;;;;0.40;0.40;;;;;;;;;;5050042;28;20268;-71
2021/03/01 01:51:38;;;;;;;0.05;0.05;;;;;;;;;;5050235;28;20177;-70
2021/03/01 01:54:04;;;;;;;0.10;0.10;;;;;;;;;;5050960;28;20165;-73
2021/03/01 01:56:31;;;;;;;0.10;0.10;;;;;;;;;;5051067;28;20202;-73
2021/03/01 01:58:57;;;;;;;0.52;0.52;;;;;;;;;;5051144;28;20197;-73
2021/03/01 02:01:23;;;;;;;0.10;0.10;;;;;;;;;;5050103;28;20168;-73
2021/03/01 02:03:52;;;;;;;0.32;0.32;;;;;;;;;;5049994;28;20161;-73
2021/03/01 02:06:36;;;;;;;0.20;0.20;;;;;;;;;;5051222;28;20737;-73
2021/03/01 02:09:02;;;;;;;0.10;0.10;;;;;;;;;;5049774;28;20197;-73
2021/03/01 02:11:37;;;;;;;0.10;0.10;;;;;;;;;;5051047;28;20169;-73
2021/03/01 02:14:06;;;;;;;0.10;0.10;;;;;;;;;;5050194;28;20165;-72
2021/03/01 02:16:35;;;;;;;0.40;0.40;;;;;;;;;;5049705;28;20212;-73
2021/03/01 02:19:01;;;;;;;0.10;0.10;;;;;;;;;;5049659;28;20193;-73
2021/03/01 02:21:28;;;;;;;0.10;0.10;;;;;;;;;;5049227;28;20166;-73
2021/03/01 02:23:54;;;;;;;0.25;0.25;;;;;;;;;;5050623;28;20169;-71
2021/03/01 02:26:27;;;;;;;0.10;0.10;;;;;;;;;;5050807;28;20229;-72
2021/03/01 02:29:02;;;;;;;0.10;0.10;;;;;;;;;;5049390;28;20197;-72
2021/03/01 02:31:29;;;;;;;0.10;0.10;;;;;;;;;;5050716;28;20188;-73
2021/03/01 02:33:57;;;;;;;0.20;0.20;;;;;;;;;;5050580;28;20211;-72
2021/03/01 02:36:28;;;;;;;0.20;0.20;;;;;;;;;;5050501;28;20213;-72
2021/03/01 02:38:56;;;;;;;0.10;0.10;;;;;;;;;;5049308;28;20265;-73
2021/03/01 02:41:23;;;;;;;0.10;0.10;;;;;;;;;;5049192;28;20185;-73
2021/03/01 02:43:50;;;;;;;0.15;0.15;;;;;;;;;;5049207;28;20208;-73
2021/03/01 02:46:17;;;;;;;0.10;0.10;;;;;;;;;;5050348;28;20248;-73
2021/03/01 02:48:43;;;;;;;0.40;0.40;;;;;;;;;;5050334;28;20316;-73
2021/03/01 02:51:10;;;;;;;0.95;0.95;;;;;;;;;;5049094;28;20184;-73
2021/03/01 02:53:38;;;;;;;1.55;0.95;;;;;;;;;;5050252;28;20162;-73
2021/03/01 02:56:05;;;;;;;1.60;1.55;;;;;;;;;;5050147;28;20554;-73
2021/03/01 02:58:33;;;;;;;0.10;0.10;;;;;;;;;;5036200;28;20736;-73
2021/03/01 03:00:59;;;;;;;0.45;0.45;;;;;;;;;;5030328;28;20166;-73
2021/03/01 03:03:26;;;;;;;0.65;0.65;;;;;;;;;;5030336;28;20190;-72
2021/03/01 03:05:53;;;;;;;0.52;0.52;;;;;;;;;;5029719;28;20170;-73
2021/03/01 03:08:20;;;;;;;0.35;0.35;;;;;;;;;;5044938;28;20205;-73
2021/03/01 03:10:48;;;;;;;0.80;0.80;;;;;;;;;;5045416;28;20181;-73
2021/03/01 03:13:14;;;;;;;0.10;0.10;;;;;;;;;;5030119;28;20166;-72
2021/03/01 03:15:41;;;;;;;0.60;0.60;;;;;;;;;;5045191;28;20300;-72
2021/03/01 03:18:11;;;;;;;1.23;1.23;;;;;;;;;;5045134;28;20198;-73
2021/03/01 03:20:37;;;;;;;0.50;0.50;;;;;;;;;;5029901;28;20182;-73
2021/03/01 03:23:04;;;;;;;1.10;1.00;;;;;;;;;;5045251;28;20177;-73
2021/03/01 03:25:30;;;;;;;0.88;0.57;;;;;;;;;;5045159;28;20205;-73
2021/03/01 03:27:57;;;;;;;0.10;0.10;;;;;;;;;;5029828;28;20201;-73
2021/03/01 03:30:24;;;;;;;0.10;0.10;;;;;;;;;;5045046;28;20651;-72
2021/03/01 03:32:51;;;;;;;0.10;0.10;;;;;;;;;;5029822;28;20173;-72
2021/03/01 03:35:18;;;;;;;0.10;0.10;;;;;;;;;;5029509;28;20190;-72
2021/03/01 03:38:04;;;;;;;1.08;1.02;;;;;;;;;;5029476;28;20190;-74
2021/03/01 03:40:31;;;;;;;0.10;0.10;;;;;;;;;;5029319;28;20269;-72
2021/03/01 03:42:57;;;;;;;0.10;0.10;;;;;;;;;;5044981;28;20538;-72
2021/03/01 03:45:24;;;;;;;0.10;0.10;;;;;;;;;;5047576;28;20568;-72
2021/03/01 03:47:52;;;;;;;0.95;0.93;;;;;;;;;;5047920;28;20240;-72
2021/03/01 03:50:19;;;;;;;0.90;0.55;;;;;;;;;;5048103;28;20240;-72
2021/03/01 03:52:47;;;;;;;2.25;1.95;;;;;;;;;;5049215;28;20172;-72
2021/03/01 03:55:18;;;;;;;1.55;0.68;;;;;;;;;;5048971;28;20193;-72
2021/03/01 03:57:46;;;;;;;0.10;0.10;;;;;;;;;;5048421;28;20201;-72
2021/03/01 04:00:13;;;;;;;0.20;0.20;;;;;;;;;;5048674;28;20162;-73
2021/03/01 04:02:40;;;;;;;0.20;0.20;;;;;;;;;;5047836;28;20166;-73
2021/03/01 04:05:07;;;;;;;0.10;0.10;;;;;;;;;;5049085;28;20166;-72
2021/03/01 04:07:34;;;;;;;0.38;0.38;;;;;;;;;;5048968;28;20197;-72
2021/03/01 04:10:01;;;;;;;0.10;0.10;;;;;;;;;;5048869;28;20224;-71
2021/03/01 04:12:30;;;;;;;0.50;0.50;;;;;;;;;;5049165;28;20169;-72
2021/03/01 04:14:56;;;;;;;0.55;0.55;;;;;;;;;;5048843;28;20196;-72
2021/03/01 04:17:22;;;;;;;0.17;0.17;;;;;;;;;;5048990;28;20161;-73
2021/03/01 04:19:49;;;;;;;0.20;0.20;;;;;;;;;;5051686;28;20183;-72
2021/03/01 04:22:16;;;;;;;0.20;0.20;;;;;;;;;;5052941;28;20161;-73
2021/03/01 04:24:42;;;;;;;0.10;0.10;;;;;;;;;;5053047;28;20164;-72
2021/03/01 04:27:09;;;;;;;0.10;0.10;;;;;;;;;;5052843;28;20165;-72
2021/03/01 04:29:36;;;;;;;3.33;1.60;;;;;;;;;;5051642;28;20176;-72
2021/03/01 04:32:02;;;;;;;0.10;0.10;;;;;;;;;;5051585;28;20177;-72
2021/03/01 04:34:29;;;;;;;0.30;0.30;;;;;;;;;;5052916;28;20161;-72
2021/03/01 04:36:56;;;;;;;0.68;0.68;;;;;;;;;;5052635;28;20563;-72
2021/03/01 04:39:22;;;;;;;6.55;2.85;;;;;;;;;;5051143;28;20196;-71
2021/03/01 04:41:49;;;;;;;0.30;0.30;;;;;;;;;;5052699;28;20161;-72
2021/03/01 04:44:15;;;;;;;0.20;0.20;;;;;;;;;;5050993;28;20169;-72
2021/03/01 04:46:50;;;;;;;1.42;1.33;;;;;;;;;;5052157;28;20244;-71
2021/03/01 04:49:16;;;;;;;0.88;0.77;;;;;;;;;;5052207;28;20199;-71
2021/03/01 04:51:42;;;;;;;0.20;0.20;;;;;;;;;;5052484;28;20154;-71
2021/03/01 04:54:10;;;;;;;0.60;0.60;;;;;;;;;;5051976;28;20184;-72
2021/03/01 04:56:40;;;;;;;5.63;4.07;;;;;;;;;;5050980;28;20275;-72
2021/03/01 04:59:06;;;;;;;0.68;0.68;;;;;;;;;;5033210;28;20198;-73
2021/03/01 05:01:33;;;;;;;1.90;1.33;;;;;;;;;;5032042;28;20213;-72
2021/03/01 05:03:59;;;;;;;0.85;0.40;;;;;;;;;;5047457;28;20269;-72
2021/03/01 05:06:26;;;;;;;0.10;0.10;;;;;;;;;;5047551;28;20189;-73
2021/03/01 05:08:52;;;;;;;0.20;0.20;;;;;;;;;;5031971;28;20194;-72
2021/03/01 05:11:27;;;;;;;0.20;0.20;;;;;;;;;;5031947;28;20236;-73
2021/03/01 05:13:53;;;;;;;1.67;1.58;;;;;;;;;;5047441;28;20181;-72
2021/03/01 05:16:19;;;;;;;0.10;0.10;;;;;;;;;;5031945;28;20197;-73
2021/03/01 05:18:45;;;;;;;0.63;0.63;;;;;;;;;;5031809;28;20197;-72
2021/03/01 05:21:12;;;;;;;0.63;0.63;;;;;;;;;;5031763;28;20186;-72
2021/03/01 05:23:38;;;;;;;0.68;0.68;;;;;;;;;;5031921;28;20162;-72
2021/03/01 05:26:04;;;;;;;0.68;0.65;;;;;;;;;;5046990;28;20170;-72
2021/03/01 05:28:31;;;;;;;0.30;0.30;;;;;;;;;;5031746;28;20221;-72
2021/03/01 05:30:57;;;;;;;1.80;1.70;;;;;;;;;;5030711;28;20165;-73
2021/03/01 05:33:23;;;;;;;0.38;0.38;;;;;;;;;;5047046;28;20174;-72
2021/03/01 05:35:49;;;;;;;0.20;0.20;;;;;;;;;;5046957;28;20208;-72
2021/03/01 05:38:15;;;;;;;0.80;0.80;;;;;;;;;;5031347;28;20198;-72
2021/03/01 05:40:42;;;;;;;0.10;0.10;;;;;;;;;;5046671;28;20174;-72
2021/03/01 05:43:08;;;;;;;0.85;0.85;;;;;;;;;;5032695;28;20166;-73
2021/03/01 05:45:35;;;;;;;0.50;0.50;;;;;;;;;;5051122;28;20221;-73
2021/03/01 05:48:02;;;;;;;0.40;0.40;;;;;;;;;;5049905;28;20219;-73
2021/03/01 05:50:28;;;;;;;0.10;0.10;;;;;;;;;;5049915;28;20192;-71
2021/03/01 05:52:58;;;;;;;0.20;0.20;;;;;;;;;;5049939;28;20180;-72
2021/03/01 05:55:25;;;;;;;0.10;0.10;;;;;;;;;;5049647;28;20246;-72
2021/03/01 05:57:51;;;;;;;1.00;1.00;;;;;;;;;;5046101;28;20206;-72
2021/03/01 06:00:18;;;;;;;0.20;0.20;;;;;;;;;;5031262;28;20166;-72
2021/03/01 06:02:44;;;;;;;0.52;0.52;;;;;;;;;;5046268;28;20189;-72
2021/03/01 06:05:11;;;;;;;0.28;0.28;;;;;;;;;;5030743;28;20174;-71
2021/03/01 06:07:37;;;;;;;0.32;0.32;;;;;;;;;;5030405;28;20296;-71
2021/03/01 06:10:03;;;;;;;0.10;0.10;;;;;;;;;;5030736;28;20196;-72
2021/03/01 06:12:30;;;;;;;0.98;0.98;;;;;;;;;;5030788;28;20158;-73
2021/03/01 06:14:56;;;;;;;0.10;0.10;;;;;;;;;;5030686;28;20190;-71
2021/03/01 06:17:23;;;;;;;0.60;0.60;;;;;;;;;;5030611;28;20189;-73
2021/03/01 06:19:57;;;;;;;0.20;0.20;;;;;;;;;;5030484;28;20370;-72
2021/03/01 06:22:32;;;;;;;0.10;0.10;;;;;;;;;;5030537;28;20245;-73
2021/03/01 06:25:01;;;;;;;0.15;0.15;;;;;;;;;;5045984;28;20182;-72
2021/03/01 06:27:27;;;;;;;0.10;0.10;;;;;;;;;;5044703;28;20178;-73
2021/03/01 06:30:10;;;;;;;0.10;0.10;;;;;;;;;;5045920;28;20177;-72
2021/03/01 06:32:36;;;;;;;4.72;2.50;;;;;;;;;;5030706;28;20218;-72
2021/03/01 06:35:04;;;;;;;0.13;0.13;;;;;;;;;;5045354;28;20277;-72
2021/03/01 06:37:30;;;;;;;0.88;0.88;;;;;;;;;;5030231;28;20193;-73
2021/03/01 06:39:57;;;;;;;0.82;0.82;;;;;;;;;;5045558;28;20166;-73
2021/03/01 06:42:28;;;;;;;0.30;0.30;;;;;;;;;;5030054;28;20237;-72
2021/03/01 06:44:57;;;;;;;0.10;0.10;;;;;;;;;;5061250;28;20284;-72
2021/03/01 06:47:42;;;;;;;0.57;0.57;;;;;;;;;;5049940;28;20173;-73
2021/03/01 06:50:20;;;;;;;0.10;0.10;;;;;;;;;;5050001;28;20181;-73
2021/03/01 06:52:46;;;;;;;0.10;0.10;;;;;;;;;;5050039;28;20153;-72
2021/03/01 06:55:12;;;;;;;1.58;1.48;;;;;;;;;;5048925;28;20196;-72
2021/03/01 06:57:39;;;;;;;0.38;0.38;;;;;;;;;;5042909;28;20221;-72
2021/03/01 07:00:06;;;;;;;0.10;0.10;;;;;;;;;;5048464;28;20181;-72
2021/03/01 07:02:41;;;;;;;0.30;0.30;;;;;;;;;;5048165;28;20237;-72
2021/03/01 07:05:08;;;;;;;0.10;0.10;;;;;;;;;;5048556;28;20200;-72
2021/03/01 07:07:35;;;;;;;0.43;0.43;;;;;;;;;;5049353;28;20195;-72
2021/03/01 07:10:02;;;;;;;0.10;0.10;;;;;;;;;;5048081;28;20696;-71
2021/03/01 07:12:51;;;;;;;0.10;0.10;;;;;;;;;;5048014;28;20188;-71
2021/03/01 07:15:18;;;;;;;0.08;0.08;;;;;;;;;;5048151;28;20200;-70
2021/03/01 07:17:45;;;;;;;1.10;1.10;;;;;;;;;;5048046;28;20197;-71
2021/03/01 07:20:12;;;;;;;1.10;0.93;;;;;;;;;;5049317;28;20244;-70
2021/03/01 07:22:43;;;;;;;0.10;0.10;;;;;;;;;;5047999;28;20188;-73
2021/03/01 07:25:10;;;;;;;0.10;0.10;;;;;;;;;;5048325;28;20189;-72
2021/03/01 07:27:41;;;;;;;0.10;0.10;;;;;;;;;;5047932;28;20200;-71
2021/03/01 07:30:08;;;;;;;0.30;0.30;;;;;;;;;;5048819;28;20174;-74
2021/03/01 07:32:36;;;;;;;0.15;0.15;;;;;;;;;;5049161;28;20682;-74
2021/03/01 07:35:03;;;;;;;0.40;0.40;;;;;;;;;;5047673;28;20607;-79
2021/03/01 07:37:29;;;;;;;0.52;0.52;;;;;;;;;;5048127;28;20192;-72
2021/03/01 07:39:55;;;;;;;1.98;0.73;;;;;;;;;;5044185;28;20667;-72
2021/03/01 07:42:22;;;;;;;0.40;0.40;;;;;;;;;;5047564;28;20196;-72
2021/03/01 07:44:54;;;;;;;0.30;0.30;;;;;;;;;;5046509;28;20179;-73
2021/03/01 07:47:25;;;;;;;1.40;1.30;;;;;;;;;;5047796;28;20216;-73
2021/03/01 07:49:52;;;;;;;0.20;0.20;;;;;;;;;;5049070;28;20162;-72
2021/03/01 07:52:18;;;;;;;2.50;0.82;;;;;;;;;;5046868;28;20195;-73
2021/03/01 07:55:03;;;;;;;2.50;1.38;;;;;;;;;;5047487;28;20191;-73
2021/03/01 07:57:30;;;;;;;0.35;0.35;;;;;;;;;;5049041;28;20149;-73
2021/03/01 07:59:58;;;;;;;0.10;0.10;;;;;;;;;;5031142;28;20237;-72
2021/03/01 08:02:31;;;;;;;0.38;0.38;;;;;;;;;;5027804;28;20224;-72
2021/03/01 08:04:59;;;;;;;0.10;0.10;;;;;;;;;;5029292;28;20211;-73
2021/03/01 08:07:41;;;;;;;0.50;0.50;;;;;;;;;;5029047;28;20162;-72
2021/03/01 08:10:12;;;;;;;0.17;0.17;;;;;;;;;;5027744;28;20257;-72
2021/03/01 08:12:41;;;;;;;0.10;0.10;;;;;;;;;;5028733;28;20251;-73
2021/03/01 08:15:08;;;;;;;1.02;0.95;;;;;;;;;;5027651;28;20228;-73
2021/03/01 08:17:35;;;;;;;0.60;0.60;;;;;;;;;;5028988;28;20189;-73
2021/03/01 08:20:14;;;;;;;0.75;0.75;;;;;;;;;;5027844;28;20225;-72
2021/03/01 08:22:59;;;;;;;0.63;0.63;;;;;;;;;;5028888;28;20166;-73
2021/03/01 08:25:48;;;;;;;1.08;0.98;;;;;;;;;;5029034;28;20170;-74
2021/03/01 08:28:18;;;;;;;0.50;0.50;;;;;;;;;;5027410;28;20185;-74
2021/03/01 08:30:44;;;;;;;0.85;0.85;;;;;;;;;;5027253;28;20238;-73
2021/03/01 08:33:10;;;;;;;0.60;0.60;;;;;;;;;;5028751;28;20170;-73
2021/03/01 08:35:37;;;;;;;1.25;1.15;;;;;;;;;;5030137;28;20208;-74
2021/03/01 08:38:04;;;;;;;9.05;0.82;;;;;;;;;;5031197;28;20205;-74
2021/03/01 08:40:30;;;;;;;0.57;0.57;;;;;;;;;;5027597;28;20173;-74
2021/03/01 08:42:56;;;;;;;0.35;0.30;;;;;;;;;;5037060;28;20638;-75
2021/03/01 08:45:24;;;;;;;1.08;0.98;;;;;;;;;;5048362;28;20237;-73
2021/03/01 08:47:51;;;;;;;3.97;2.33;;;;;;;;;;5048322;28;20226;-74
2021/03/01 08:50:22;;;;;;;3.75;1.85;;;;;;;;;;5046514;28;20188;-74
2021/03/01 08:52:49;;;;;;;1.10;1.05;;;;;;;;;;5045619;28;20310;-74
2021/03/01 08:55:16;;;;;;;1.30;1.27;;;;;;;;;;5046323;28;20204;-75
2021/03/01 08:57:55;;;;;;;1.65;0.90;;;;;;;;;;5048132;28;20268;-74
2021/03/01 09:00:22;;;;;;;5.45;3.15;;;;;;;;;;5046810;28;20184;-73
2021/03/01 09:02:48;;;;;;;1.27;1.17;;;;;;;;;;5047243;28;20192;-73
2021/03/01 09:05:17;;;;;;;2.83;1.20;;;;;;;;;;5051296;28;20161;-73
2021/03/01 09:07:44;;;;;;;4.10;1.85;;;;;;;;;;5050837;28;20179;-74
2021/03/01 09:10:10;;;;;;;5.22;0.75;;;;;;;;;;5051821;28;20165;-74
2021/03/01 09:12:37;;;;;;;2.90;1.80;;;;;;;;;;5050047;28;20564;-74
2021/03/01 09:15:04;;;;;;;3.67;0.70;;;;;;;;;;5050366;28;20223;-72
2021/03/01 09:17:30;;;;;;;5.68;1.55;;;;;;;;;;5046581;28;20189;-73
2021/03/01 09:19:57;;;;;;;1.42;1.30;;;;;;;;;;5047037;28;20638;-74
2021/03/01 09:22:23;;;;;;;1.08;1.05;;;;;;;;;;5031598;28;20169;-74
2021/03/01 09:24:49;;;;;;;0.57;0.40;;;;;;;;;;5030980;28;20150;-75
2021/03/01 09:27:30;;;;;;;3.58;1.35;;;;;;;;;;5031471;28;20154;-74
2021/03/01 09:30:03;;;;;;;1.40;0.85;;;;;;;;;;5031342;28;20158;-74
2021/03/01 09:32:29;;;;;;;0.77;0.70;;;;;;;;;;5046511;28;20181;-74
2021/03/01 09:34:55;;;;;;;0.45;0.45;;;;;;;;;;5031244;28;20223;-74
2021/03/01 09:37:25;;;;;;;2.47;1.25;;;;;;;;;;5048780;28;20185;-73
2021/03/01 09:39:51;;;;;;;0.70;0.70;;;;;;;;;;5051071;28;20167;-73
2021/03/01 09:42:18;;;;;;;1.10;0.85;;;;;;;;;;5051255;28;20161;-73
2021/03/01 09:44:45;;;;;;;0.90;0.82;;;;;;;;;;5050751;28;20176;-75
2021/03/01 09:47:12;;;;;;;0.40;0.40;;;;;;;;;;5049857;28;20264;-74
2021/03/01 09:49:42;;;;;;;1.85;0.43;;;;;;;;;;5050949;28;20153;-73
2021/03/01 09:52:08;;;;;;;1.02;0.93;;;;;;;;;;5050988;28;20157;-74
2021/03/01 09:54:35;;;;;;;4.40;1.98;;;;;;;;;;5050972;28;20184;-74
2021/03/01 09:57:06;;;;;;;2.70;2.05;;;;;;;;;;5050865;28;20184;-73
2021/03/01 09:59:37;;;;;;;1.02;0.70;;;;;;;;;;5049625;28;20169;-74
2021/03/01 10:02:14;;;;;;;1.17;0.88;;;;;;;;;;5050786;28;20164;-73
2021/03/01 10:04:41;;;;;;;0.90;0.88;;;;;;;;;;5050826;28;20229;-73
2021/03/01 10:07:16;;;;;;;2.10;1.50;;;;;;;;;;5050550;28;20248;-73
2021/03/01 10:09:42;;;;;;;0.45;0.38;;;;;;;;;;5049506;28;20177;-74
2021/03/01 10:12:08;;;;;;;1.40;1.23;;;;;;;;;;5050615;28;20187;-74
2021/03/01 10:14:35;;;;;;;1.40;1.30;;;;;;;;;;5050677;28;20223;-73
2021/03/01 10:17:14;;;;;;;1.10;1.00;;;;;;;;;;5048358;28;20212;-74
2021/03/01 10:19:40;;;;;;;0.38;0.38;;;;;;;;;;5049289;28;20164;-74
2021/03/01 10:22:06;;;;;;;3.92;1.13;;;;;;;;;;5050362;28;20232;-74
2021/03/01 10:24:41;;;;;;;0.25;0.25;;;;;;;;;;5048825;28;20197;-74
2021/03/01 10:27:08;;;;;;;0.77;0.77;;;;;;;;;;5049268;28;20168;-74
2021/03/01 10:29:37;;;;;;;1.20;0.80;;;;;;;;;;5050273;28;20157;-74
2021/03/01 10:32:04;;;;;;;6.40;1.02;;;;;;;;;;5050232;28;20161;-73
2021/03/01 10:34:31;;;;;;;0.70;0.63;;;;;;;;;;5050182;28;20200;-74
2021/03/01 10:36:58;;;;;;;3.30;2.75;;;;;;;;;;5050074;28;20782;-74
2021/03/01 10:39:32;;;;;;;2.53;1.00;;;;;;;;;;5050057;28;20173;-74
2021/03/01 10:41:59;;;;;;;0.30;0.30;;;;;;;;;;5049776;28;20258;-73
2021/03/01 10:44:32;;;;;;;0.82;0.80;;;;;;;;;;5049913;28;20201;-74
2021/03/01 10:47:11;;;;;;;0.17;0.15;;;;;;;;;;5009020;28;20225;-74
2021/03/01 10:49:38;;;;;;;0.95;0.90;;;;;;;;;;5009359;28;20205;-74
2021/03/01 10:52:07;;;;;;;0.88;0.25;;;;;;;;;;5010376;28;20190;-74
2021/03/01 10:54:33;;;;;;;1.95;0.95;;;;;;;;;;5008968;28;20269;-74
2021/03/01 10:56:59;;;;;;;0.80;0.80;;;;;;;;;;5008803;28;20592;-74
2021/03/01 10:59:26;;;;;;;0.68;0.55;;;;;;;;;;5010334;28;20169;-74
2021/03/01 11:01:52;;;;;;;0.10;0.10;;;;;;;;;;5008863;28;20205;-73
2021/03/01 11:04:19;;;;;;;0.08;0.08;;;;;;;;;;5010331;28;20190;-73
2021/03/01 11:06:49;;;;;;;1.15;1.05;;;;;;;;;;5010008;28;20162;-72
2021/03/01 11:09:16;;;;;;;0.30;0.30;;;;;;;;;;5010262;28;20253;-73
2021/03/01 11:11:42;;;;;;;0.10;0.10;;;;;;;;;;5008751;28;20181;-73
2021/03/01 11:14:09;;;;;;;0.25;0.25;;;;;;;;;;5010189;28;20207;-73
2021/03/01 11:16:36;;;;;;;1.55;0.52;;;;;;;;;;5009611;28;20234;-72
2021/03/01 11:19:02;;;;;;;1.77;1.60;;;;;;;;;;5008714;28;20174;-73
2021/03/01 11:21:29;;;;;;;0.35;0.30;;;;;;;;;;5009999;28;20163;-73
2021/03/01 11:23:55;;;;;;;0.38;0.32;;;;;;;;;;5009726;28;20256;-73
2021/03/01 11:26:21;;;;;;;0.15;0.15;;;;;;;;;;5009990;28;20162;-73
2021/03/01 11:28:47;;;;;;;0.10;0.10;;;;;;;;;;5007774;28;20189;-74
2021/03/01 11:31:14;;;;;;;1.45;0.85;;;;;;;;;;5009173;28;20631;-72
2021/03/01 11:33:40;;;;;;;1.17;0.55;;;;;;;;;;5009666;28;20198;-71
2021/03/01 11:36:07;;;;;;;0.40;0.40;;;;;;;;;;5009544;28;20198;-75
2021/03/01 11:38:34;;;;;;;0.40;0.40;;;;;;;;;;5007802;28;20190;-73
2021/03/01 11:41:00;;;;;;;0.32;0.32;;;;;;;;;;5007676;28;20182;-74
2021/03/01 11:43:27;;;;;;;0.32;0.32;;;;;;;;;;5008038;28;20256;-73
2021/03/01 11:45:53;;;;;;;0.55;0.55;;;;;;;;;;5030447;28;20606;-73
2021/03/01 11:48:19;;;;;;;0.30;0.30;;;;;;;;;;5047471;28;20192;-74
2021/03/01 11:50:46;;;;;;;2.38;0.50;;;;;;;;;;5049095;28;20165;-74
2021/03/01 11:53:13;;;;;;;0.40;0.40;;;;;;;;;;5048777;28;20197;-74
2021/03/01 11:55:40;;;;;;;0.32;0.32;;;;;;;;;;5048609;28;20201;-74
2021/03/01 11:58:06;;;;;;;1.95;0.88;;;;;;;;;;5048733;28;20244;-74
2021/03/01 12:00:32;;;;;;;0.15;0.15;;;;;;;;;;5048578;28;20161;-74
2021/03/01 12:02:59;;;;;;;1.75;0.52;;;;;;;;;;5048711;28;20185;-73
2021/03/01 12:05:25;;;;;;;0.88;0.63;;;;;;;;;;5048849;28;20247;-75
2021/03/01 12:07:51;;;;;;;0.45;0.45;;;;;;;;;;5047190;28;20247;-73
2021/03/01 12:10:17;;;;;;;0.15;0.15;;;;;;;;;;5048752;28;20184;-74
2021/03/01 12:12:43;;;;;;;1.00;0.63;;;;;;;;;;5048100;28;20219;-74
2021/03/01 12:15:10;;;;;;;0.30;0.30;;;;;;;;;;5046445;28;20276;-73
2021/03/01 12:17:37;;;;;;;0.22;0.22;;;;;;;;;;5047388;28;20195;-74
2021/03/01 12:20:06;;;;;;;0.30;0.30;;;;;;;;;;5047358;28;20169;-73
2021/03/01 12:22:33;;;;;;;0.10;0.10;;;;;;;;;;5048300;28;20165;-73
2021/03/01 12:25:00;;;;;;;0.50;0.50;;;;;;;;;;5048390;28;20225;-72
2021/03/01 12:27:26;;;;;;;0.70;0.30;;;;;;;;;;5047085;28;20195;-73
2021/03/01 12:29:52;;;;;;;0.15;0.15;;;;;;;;;;5048360;28;20160;-74
2021/03/01 12:32:19;;;;;;;5.15;0.45;;;;;;;;;;5048171;28;20243;-73
2021/03/01 12:34:45;;;;;;;0.65;0.65;;;;;;;;;;5048290;28;20149;-73
2021/03/01 12:37:11;;;;;;;0.30;0.30;;;;;;;;;;5048167;28;20180;-73
2021/03/01 12:39:38;;;;;;;0.00;0.00;;;;;;;;;;5050422;28;20180;-73
2021/03/01 12:42:05;;;;;;;0.30;0.20;;;;;;;;;;5051284;28;20171;-74
2021/03/01 12:44:31;;;;;;;0.20;0.20;;;;;;;;;;5050660;28;20220;-75
2021/03/01 12:46:57;;;;;;;1.45;0.30;;;;;;;;;;5050901;28;20177;-75
2021/03/01 12:49:23;;;;;;;1.05;0.95;;;;;;;;;;5052116;28;20193;-75
2021/03/01 12:51:50;;;;;;;0.10;0.10;;;;;;;;;;5050893;28;20193;-75
2021/03/01 12:54:17;;;;;;;0.10;0.10;;;;;;;;;;5051844;28;20200;-74
2021/03/01 12:56:43;;;;;;;0.60;0.50;;;;;;;;;;5051825;28;20200;-74
2021/03/01 12:59:10;;;;;;;0.43;0.43;;;;;;;;;;5052028;28;20153;-75
2021/03/01 13:01:36;;;;;;;0.00;0.00;;;;;;;;;;5051927;28;20168;-73
2021/03/01 13:04:02;;;;;;;0.38;0.38;;;;;;;;;;5050593;28;20197;-73
2021/03/01 13:06:29;;;;;;;0.30;0.30;;;;;;;;;;5052029;28;20165;-75
2021/03/01 13:08:55;;;;;;;1.27;1.17;;;;;;;;;;5050183;28;20169;-72
2021/03/01 13:11:22;;;;;;;0.22;0.22;;;;;;;;;;5050464;28;20169;-72
2021/03/01 13:13:48;;;;;;;1.23;1.02;;;;;;;;;;5051514;28;20197;-72
2021/03/01 13:16:14;;;;;;;0.25;0.25;;;;;;;;;;5051640;28;20245;-71
2021/03/01 13:18:40;;;;;;;1.27;0.55;;;;;;;;;;5050173;28;20298;-72
2021/03/01 13:21:07;;;;;;;0.90;0.45;;;;;;;;;;5051609;28;20164;-72
2021/03/01 13:23:34;;;;;;;0.55;0.55;;;;;;;;;;5049767;28;20193;-75
2021/03/01 13:26:00;;;;;;;0.40;0.40;;;;;;;;;;5050171;28;20252;-74
2021/03/01 13:28:26;;;;;;;0.00;0.00;;;;;;;;;;5049804;28;20185;-74
2021/03/01 13:30:53;;;;;;;0.75;0.63;;;;;;;;;;5049927;28;20200;-74
2021/03/01 13:33:22;;;;;;;0.35;0.35;;;;;;;;;;5051282;28;20196;-74
2021/03/01 13:35:48;;;;;;;0.38;0.38;;;;;;;;;;5051171;28;20185;-73
2021/03/01 13:38:15;;;;;;;0.32;0.32;;;;;;;;;;5049489;28;20211;-74
2021/03/01 13:40:41;;;;;;;0.32;0.22;;;;;;;;;;5049830;28;20658;-74
2021/03/01 13:43:07;;;;;;;0.32;0.32;;;;;;;;;;5049423;28;20203;-75
2021/03/01 13:45:33;;;;;;;0.43;0.35;;;;;;;;;;5050895;28;20305;-74
2021/03/01 13:48:00;;;;;;;38.88;1.88;;;;;;;;;;5050999;28;20182;-74
2021/03/01 13:50:27;;;;;;;0.47;0.47;;;;;;;;;;5050143;28;20216;-74
2021/03/01 13:52:53;;;;;;;1.20;0.95;;;;;;;;;;5049618;28;20209;-74
2021/03/01 13:55:19;;;;;;;0.30;0.30;;;;;;;;;;5048722;28;20227;-74
2021/03/01 13:57:46;;;;;;;0.45;0.45;;;;;;;;;;5051021;28;20218;-72
2021/03/01 14:00:13;;;;;;;0.85;0.85;;;;;;;;;;5050595;28;20168;-75
2021/03/01 14:02:39;;;;;;;0.28;0.28;;;;;;;;;;5049440;28;20199;-75
2021/03/01 14:05:06;;;;;;;0.60;0.60;;;;;;;;;;5050487;28;20165;-74
2021/03/01 14:07:32;;;;;;;0.65;0.65;;;;;;;;;;5048455;28;20201;-74
2021/03/01 14:09:59;;;;;;;1.08;0.65;;;;;;;;;;5049083;28;20169;-75
2021/03/01 14:12:25;;;;;;;0.38;0.38;;;;;;;;;;5050783;28;20192;-76
2021/03/01 14:14:51;;;;;;;0.30;0.30;;;;;;;;;;5049158;28;20249;-75
2021/03/01 14:17:18;;;;;;;0.17;0.13;;;;;;;;;;5049282;28;20184;-75
2021/03/01 14:19:44;;;;;;;0.15;0.15;;;;;;;;;;5049398;28;20158;-76
2021/03/01 14:22:10;;;;;;;0.10;0.10;;;;;;;;;;5049360;28;20166;-75
2021/03/01 14:24:36;;;;;;;1.15;1.13;;;;;;;;;;5049334;28;20172;-76
2021/03/01 14:27:03;;;;;;;0.30;0.30;;;;;;;;;;5049965;28;20203;-74
2021/03/01 14:29:29;;;;;;;0.32;0.32;;;;;;;;;;5049098;28;20543;-75
2021/03/01 14:31:56;;;;;;;4.78;0.90;;;;;;;;;;5050234;28;20166;-76
2021/03/01 14:34:22;;;;;;;10.60;1.13;;;;;;;;;;5050304;28;20217;-75
2021/03/01 14:36:48;;;;;;;0.52;0.43;;;;;;;;;;5049814;28;20236;-76
2021/03/01 14:39:15;;;;;;;0.00;0.00;;;;;;;;;;5048544;28;20197;-75
2021/03/01 14:41:42;;;;;;;0.80;0.80;;;;;;;;;;5050125;28;20204;-76
2021/03/01 14:44:08;;;;;;;0.38;0.38;;;;;;;;;;5048897;28;20168;-76
2021/03/01 14:46:34;;;;;;;0.47;0.47;;;;;;;;;;5049724;28;20274;-75